createdAt,value
2022-09-18T00:01:43.440Z,14.85
2022-09-18T00:04:13.847Z,14.74
2022-09-18T00:06:41.445Z,15.17
2022-09-18T00:09:09.683Z,15.74
2022-09-18T00:11:39.978Z,14.69
2022-09-18T00:14:07.917Z,15.40
2022-09-18T00:16:35.441Z,15.51
2022-09-18T00:19:03.021Z,15.05
2022-09-18T00:21:31.957Z,15.16
2022-09-18T00:23:59.824Z,14.80
2022-09-18T00:26:27.586Z,14.65
2022-09-18T00:28:55.211Z,14.90
2022-09-18T00:31:26.318Z,15.03
2022-09-18T00:33:54.032Z,15.13
2022-09-18T00:36:21.336Z,14.58
2022-09-18T00:38:48.575Z,14.34
2022-09-18T00:41:23.892Z,14.30
2022-09-18T00:43:54.182Z,13.94
2022-09-18T00:46:29.222Z,13.42
2022-09-18T00:49:18.885Z,13.75
2022-09-18T00:51:46.759Z,13.77
2022-09-18T00:54:24.327Z,13.98
2022-09-18T00:56:52.863Z,14.56
2022-09-18T00:59:22.541Z,14.23
2022-09-18T01:01:49.688Z,14.02
2022-09-18T01:04:17.093Z,14.05
2022-09-18T01:06:46.855Z,13.14
2022-09-18T01:09:27.965Z,13.72
2022-09-18T01:12:00.732Z,14.75
2022-09-18T01:14:27.834Z,14.74
2022-09-18T01:16:55.024Z,13.77
2022-09-18T01:19:40.990Z,13.61
2022-09-18T01:22:25.884Z,14.27
2022-09-18T01:24:53.266Z,13.95
2022-09-18T01:27:43.383Z,14.09
2022-09-18T01:30:11.391Z,13.69
2022-09-18T01:32:41.491Z,14.60
2022-09-18T01:35:36.900Z,14.31
2022-09-18T01:38:15.830Z,15.03
2022-09-18T01:40:44.795Z,14.53
2022-09-18T01:43:13.223Z,14.76
2022-09-18T01:45:43.015Z,15.24
2022-09-18T01:48:13.000Z,15.22
2022-09-18T01:50:45.567Z,14.47
2022-09-18T01:53:20.124Z,14.64
2022-09-18T01:55:50.143Z,13.93
2022-09-18T01:58:19.062Z,15.14
2022-09-18T02:00:48.710Z,14.36
2022-09-18T02:03:16.893Z,14.74
2022-09-18T02:05:45.801Z,14.31
2022-09-18T02:08:32.618Z,14.74
2022-09-18T02:11:13.594Z,15.28
2022-09-18T02:13:45.307Z,14.15
2022-09-18T02:16:15.215Z,13.76
2022-09-18T02:18:43.885Z,14.57
2022-09-18T02:21:12.132Z,15.06
2022-09-18T02:23:39.974Z,14.90
2022-09-18T02:26:07.425Z,15.21
2022-09-18T02:28:34.958Z,15.25
2022-09-18T02:31:02.182Z,15.27
2022-09-18T02:33:32.467Z,15.56
2022-09-18T02:36:21.135Z,14.70
2022-09-18T02:38:55.309Z,14.47
2022-09-18T02:41:29.565Z,14.43
2022-09-18T02:44:06.135Z,14.47
2022-09-18T02:46:47.238Z,15.63
2022-09-18T02:49:17.162Z,14.74
2022-09-18T02:51:52.515Z,15.17
2022-09-18T02:54:27.229Z,14.44
2022-09-18T02:57:11.715Z,15.26
2022-09-18T02:59:39.568Z,14.88
2022-09-18T03:02:07.661Z,15.37
2022-09-18T03:04:35.166Z,13.10
2022-09-18T03:07:02.403Z,13.79
2022-09-18T03:09:30.111Z,14.04
2022-09-18T03:11:57.694Z,14.60
2022-09-18T03:14:25.801Z,14.92
2022-09-18T03:16:53.211Z,15.36
2022-09-18T03:19:20.367Z,15.30
2022-09-18T03:21:47.667Z,15.38
2022-09-18T03:24:15.147Z,15.08
2022-09-18T03:26:42.648Z,14.99
2022-09-18T03:29:10.209Z,15.25
2022-09-18T03:31:38.728Z,15.45
2022-09-18T03:34:06.370Z,15.20
2022-09-18T03:36:33.544Z,15.67
2022-09-18T03:39:01.191Z,15.22
2022-09-18T03:41:29.459Z,15.96
2022-09-18T03:43:56.833Z,15.88
2022-09-18T03:46:24.630Z,15.73
2022-09-18T03:48:52.386Z,16.51
2022-09-18T03:51:22.026Z,17.10
2022-09-18T03:53:51.120Z,16.44
2022-09-18T03:56:18.560Z,16.72
2022-09-18T03:58:48.769Z,16.32
2022-09-18T04:01:17.324Z,16.26
2022-09-18T04:03:46.625Z,16.58
2022-09-18T04:06:19.085Z,16.76
2022-09-18T04:08:50.082Z,15.62
2022-09-18T04:11:19.613Z,15.92
2022-09-18T04:13:46.840Z,15.64
2022-09-18T04:16:14.335Z,15.66
2022-09-18T04:18:41.560Z,14.95
2022-09-18T04:21:08.877Z,15.53
2022-09-18T04:23:36.338Z,15.40
2022-09-18T04:26:09.044Z,15.19
2022-09-18T04:28:39.794Z,15.16
2022-09-18T04:31:07.200Z,15.40
2022-09-18T04:33:34.431Z,15.30
2022-09-18T04:36:05.906Z,14.84
2022-09-18T04:38:34.530Z,14.67
2022-09-18T04:41:01.770Z,15.07
2022-09-18T04:43:30.045Z,14.72
2022-09-18T04:45:57.199Z,14.69
2022-09-18T04:48:24.330Z,15.14
2022-09-18T04:50:51.907Z,14.90
2022-09-18T04:53:19.167Z,15.42
2022-09-18T04:55:47.020Z,14.82
2022-09-18T04:58:16.389Z,15.87
2022-09-18T05:00:43.982Z,15.27
2022-09-18T05:03:11.216Z,15.62
2022-09-18T05:05:38.970Z,15.68
2022-09-18T05:08:06.518Z,14.78
2022-09-18T05:10:34.287Z,14.85
2022-09-18T05:13:03.745Z,15.68
2022-09-18T05:15:31.197Z,14.85
2022-09-18T05:18:01.574Z,15.00
2022-09-18T05:20:30.173Z,15.37
2022-09-18T05:23:00.195Z,15.31
2022-09-18T05:25:29.018Z,15.62
2022-09-18T05:27:57.202Z,14.76
2022-09-18T05:30:24.852Z,15.40
2022-09-18T05:32:58.959Z,15.40
2022-09-18T05:35:27.534Z,14.93
2022-09-18T05:37:55.046Z,16.20
2022-09-18T05:40:23.861Z,16.30
2022-09-18T05:42:53.157Z,17.00
2022-09-18T05:45:20.885Z,16.75
2022-09-18T05:47:58.176Z,16.93
2022-09-18T05:50:26.387Z,16.40
2022-09-18T05:53:12.769Z,15.40
2022-09-18T05:55:40.666Z,16.23
2022-09-18T05:58:13.078Z,16.39
2022-09-18T06:00:40.873Z,16.58
2022-09-18T06:03:14.326Z,16.27
2022-09-18T06:05:41.685Z,16.51
2022-09-18T06:08:11.082Z,15.98
2022-09-18T06:10:39.455Z,15.45
2022-09-18T06:13:07.864Z,15.48
2022-09-18T06:15:39.735Z,15.04
2022-09-18T06:18:09.169Z,15.18
2022-09-18T06:20:36.816Z,14.87
2022-09-18T06:23:04.346Z,14.98
2022-09-18T06:25:33.080Z,14.84
2022-09-18T06:28:00.526Z,15.60
2022-09-18T06:30:28.496Z,15.18
2022-09-18T06:32:56.919Z,15.26
2022-09-18T06:35:24.468Z,15.20
2022-09-18T06:37:51.644Z,14.69
2022-09-18T06:40:19.044Z,15.21
2022-09-18T06:42:46.941Z,14.97
2022-09-18T06:45:15.315Z,15.92
2022-09-18T06:47:44.496Z,15.86
2022-09-18T06:50:12.562Z,14.69
2022-09-18T06:52:39.745Z,15.30
2022-09-18T06:55:07.010Z,15.37
2022-09-18T06:57:34.398Z,15.80
2022-09-18T07:00:01.645Z,15.36
2022-09-18T07:02:29.111Z,15.71
2022-09-18T07:04:58.222Z,15.72
2022-09-18T07:07:25.440Z,15.52
2022-09-18T07:09:52.846Z,15.13
2022-09-18T07:12:21.380Z,15.43
2022-09-18T07:14:48.702Z,15.92
2022-09-18T07:17:19.124Z,15.15
2022-09-18T07:19:48.957Z,15.40
2022-09-18T07:22:16.400Z,15.18
2022-09-18T07:24:43.679Z,15.58
2022-09-18T07:27:11.139Z,15.42
2022-09-18T07:29:40.530Z,15.37
2022-09-18T07:32:08.519Z,15.82
2022-09-18T07:34:37.725Z,15.76
2022-09-18T07:37:04.912Z,15.39
2022-09-18T07:39:32.082Z,15.19
2022-09-18T07:42:05.648Z,14.98
2022-09-18T07:44:36.694Z,15.80
2022-09-18T07:47:04.292Z,15.51
2022-09-18T07:49:33.050Z,15.11
2022-09-18T07:52:01.936Z,15.05
2022-09-18T07:54:30.285Z,15.48
2022-09-18T07:56:58.012Z,15.66
2022-09-18T07:59:27.227Z,16.35
2022-09-18T08:01:56.014Z,16.10
2022-09-18T08:04:24.115Z,15.82
2022-09-18T08:07:03.402Z,16.10
2022-09-18T08:09:31.406Z,16.37
2022-09-18T08:11:58.787Z,15.83
2022-09-18T08:14:28.891Z,15.78
2022-09-18T08:16:57.909Z,16.28
2022-09-18T08:19:25.157Z,16.92
2022-09-18T08:21:52.623Z,16.39
2022-09-18T08:24:22.001Z,17.25
2022-09-18T08:26:51.050Z,17.31
2022-09-18T08:29:19.437Z,17.52
2022-09-18T08:31:48.658Z,17.07
2022-09-18T08:34:16.000Z,16.54
2022-09-18T08:36:43.531Z,16.61
2022-09-18T08:39:11.209Z,16.81
2022-09-18T08:41:55.650Z,16.17
2022-09-18T08:44:26.080Z,16.83
2022-09-18T08:47:04.947Z,17.01
2022-09-18T08:49:41.180Z,17.31
2022-09-18T08:52:17.444Z,17.39
2022-09-18T08:54:56.256Z,16.46
2022-09-18T08:57:28.204Z,17.70
2022-09-18T08:59:59.282Z,17.24
2022-09-18T09:02:52.915Z,17.19
2022-09-18T09:05:21.485Z,16.70
2022-09-18T09:08:12.103Z,16.66
2022-09-18T09:10:39.491Z,17.30
2022-09-18T09:13:13.499Z,17.62
2022-09-18T09:16:00.102Z,16.83
2022-09-18T09:18:38.612Z,16.75
2022-09-18T09:21:13.540Z,16.87
2022-09-18T09:23:59.599Z,16.38
2022-09-18T09:26:34.392Z,16.71
2022-09-18T09:29:04.401Z,16.87
2022-09-18T09:31:38.726Z,16.98
2022-09-18T09:34:19.794Z,16.50
2022-09-18T09:36:48.440Z,17.25
2022-09-18T09:39:36.320Z,17.14
2022-09-18T09:42:08.896Z,17.25
2022-09-18T09:44:38.343Z,16.86
2022-09-18T09:47:06.089Z,17.04
2022-09-18T09:49:39.127Z,16.83
2022-09-18T09:52:12.832Z,16.61
2022-09-18T09:54:41.480Z,16.13
2022-09-18T09:57:09.250Z,16.62
2022-09-18T09:59:37.058Z,16.43
2022-09-18T10:02:18.045Z,16.90
2022-09-18T10:04:54.578Z,16.90
2022-09-18T10:07:23.777Z,16.64
2022-09-18T10:09:58.249Z,16.35
2022-09-18T10:12:44.509Z,16.61
2022-09-18T10:15:14.198Z,17.14
2022-09-18T10:17:41.477Z,17.48
2022-09-18T10:20:11.505Z,16.59
2022-09-18T10:22:39.157Z,16.54
2022-09-18T10:25:07.832Z,15.81
2022-09-18T10:27:35.891Z,15.14
2022-09-18T10:30:13.395Z,15.82
2022-09-18T10:32:44.233Z,15.62
2022-09-18T10:35:38.360Z,16.47
2022-09-18T10:38:09.981Z,16.01
2022-09-18T10:40:39.761Z,15.94
2022-09-18T10:43:07.618Z,16.43
2022-09-18T10:45:38.150Z,16.26
2022-09-18T10:48:13.823Z,16.90
2022-09-18T10:50:51.807Z,17.11
2022-09-18T10:53:30.696Z,16.72
2022-09-18T10:56:03.399Z,16.83
2022-09-18T10:58:31.854Z,17.21
2022-09-18T11:01:00.562Z,17.85
2022-09-18T11:03:40.434Z,18.13
2022-09-18T11:06:18.365Z,18.45
2022-09-18T11:08:46.887Z,18.55
2022-09-18T11:11:22.863Z,19.25
2022-09-18T11:13:51.664Z,18.57
2022-09-18T11:16:25.266Z,18.01
2022-09-18T11:19:07.610Z,17.78
2022-09-18T11:21:47.023Z,18.22
2022-09-18T11:24:20.077Z,18.60
2022-09-18T11:26:50.426Z,19.11
2022-09-18T11:29:19.119Z,19.08
2022-09-18T11:31:46.992Z,18.66
2022-09-18T11:34:18.055Z,18.36
2022-09-18T11:36:46.741Z,18.94
2022-09-18T11:39:15.493Z,19.44
2022-09-18T11:41:43.262Z,18.77
2022-09-18T11:44:37.454Z,17.71
2022-09-18T11:47:09.792Z,18.65
2022-09-18T11:49:42.213Z,18.58
2022-09-18T11:52:16.044Z,18.78
2022-09-18T11:54:49.596Z,18.84
2022-09-18T11:57:17.955Z,19.10
2022-09-18T11:59:48.541Z,18.43
2022-09-18T12:02:21.944Z,18.47
2022-09-18T12:04:56.392Z,18.10
2022-09-18T12:07:40.902Z,19.17
2022-09-18T12:10:14.748Z,19.85
2022-09-18T12:12:47.633Z,20.12
2022-09-18T12:15:25.577Z,19.51
2022-09-18T12:17:54.503Z,20.15
2022-09-18T12:20:40.244Z,20.42
2022-09-18T12:23:12.448Z,20.53
2022-09-18T12:25:58.711Z,19.74
2022-09-18T12:28:38.956Z,19.58
2022-09-18T12:31:12.824Z,20.34
2022-09-18T12:33:55.979Z,19.41
2022-09-18T12:36:41.849Z,19.93
2022-09-18T12:39:14.806Z,20.05
2022-09-18T12:41:42.259Z,19.97
2022-09-18T12:44:14.183Z,20.09
2022-09-18T12:46:41.253Z,19.51
2022-09-18T12:49:27.157Z,19.26
2022-09-18T12:52:01.934Z,19.92
2022-09-18T12:54:32.346Z,20.74
2022-09-18T12:57:05.925Z,20.34
2022-09-18T12:59:39.129Z,19.31
2022-09-18T13:02:06.174Z,20.36
2022-09-18T13:04:35.770Z,20.96
2022-09-18T13:07:14.125Z,20.96
2022-09-18T13:09:44.593Z,21.37
2022-09-18T13:12:12.915Z,21.30
2022-09-18T13:14:44.517Z,21.18
2022-09-18T13:17:16.788Z,21.00
2022-09-18T13:19:53.047Z,20.90
2022-09-18T13:22:20.432Z,21.40
2022-09-18T13:24:48.803Z,21.00
2022-09-18T13:27:16.501Z,20.81
2022-09-18T13:29:53.053Z,20.54
2022-09-18T13:32:21.380Z,21.10
2022-09-18T13:34:52.986Z,21.32
2022-09-18T13:37:22.717Z,21.18
2022-09-18T13:40:09.195Z,21.29
2022-09-18T13:42:41.256Z,20.63
2022-09-18T13:45:14.950Z,20.32
2022-09-18T13:48:01.851Z,18.20
2022-09-18T13:50:29.317Z,16.46
2022-09-18T13:52:57.469Z,17.18
2022-09-18T13:55:26.694Z,17.49
2022-09-18T13:58:12.628Z,16.65
2022-09-18T14:00:40.253Z,16.70
2022-09-18T14:03:07.697Z,16.25
2022-09-18T14:05:35.664Z,16.23
2022-09-18T14:08:04.613Z,17.26
2022-09-18T14:10:37.156Z,17.83
2022-09-18T14:13:06.373Z,17.45
2022-09-18T14:15:33.812Z,18.30
2022-09-18T14:18:11.737Z,18.12
2022-09-18T14:20:39.175Z,17.82
2022-09-18T14:23:41.421Z,16.93
2022-09-18T14:26:09.179Z,16.90
2022-09-18T14:28:36.408Z,17.18
2022-09-18T14:31:18.084Z,17.82
2022-09-18T14:33:45.558Z,15.68
2022-09-18T14:36:14.736Z,16.03
2022-09-18T14:38:42.248Z,16.16
2022-09-18T14:41:16.054Z,16.32
2022-09-18T14:43:47.393Z,16.24
2022-09-18T14:46:18.991Z,15.40
2022-09-18T14:48:46.138Z,14.52
2022-09-18T14:51:19.255Z,15.53
2022-09-18T14:53:49.972Z,16.01
2022-09-18T14:56:18.386Z,16.47
2022-09-18T14:58:46.671Z,16.25
2022-09-18T15:01:15.265Z,15.71
2022-09-18T15:03:43.790Z,15.97
2022-09-18T15:06:24.279Z,16.74
2022-09-18T15:08:52.425Z,17.12
2022-09-18T15:11:20.494Z,16.61
2022-09-18T15:13:49.028Z,17.09
2022-09-18T15:16:21.405Z,17.24
2022-09-18T15:18:49.359Z,17.22
2022-09-18T15:21:23.918Z,16.99
2022-09-18T15:23:51.081Z,17.47
2022-09-18T15:26:18.672Z,17.69
2022-09-18T15:28:47.581Z,17.04
2022-09-18T15:31:14.784Z,17.55
2022-09-18T15:33:49.560Z,16.44
2022-09-18T15:36:21.538Z,16.46
2022-09-18T15:38:48.980Z,16.31
2022-09-18T15:41:22.238Z,16.04
2022-09-18T15:43:50.465Z,16.37
2022-09-18T15:46:24.658Z,16.28
2022-09-18T15:48:52.154Z,17.03
2022-09-18T15:51:26.148Z,16.22
2022-09-18T15:54:05.591Z,15.72
2022-09-18T15:56:34.092Z,15.66
2022-09-18T15:59:04.067Z,16.16
2022-09-18T16:01:35.620Z,15.98
2022-09-18T16:04:08.447Z,16.46
2022-09-18T16:06:37.843Z,16.00
2022-09-18T16:09:05.527Z,16.27
2022-09-18T16:11:32.583Z,16.41
2022-09-18T16:13:59.722Z,17.05
2022-09-18T16:16:27.231Z,16.35
2022-09-18T16:18:56.337Z,16.28
2022-09-18T16:21:24.603Z,16.21
2022-09-18T16:23:54.916Z,16.05
2022-09-18T16:26:24.711Z,16.80
2022-09-18T16:28:56.268Z,16.17
2022-09-18T16:31:24.782Z,15.90
2022-09-18T16:33:52.713Z,16.39
2022-09-18T16:36:34.133Z,15.66
2022-09-18T16:39:03.901Z,16.19
2022-09-18T16:41:31.170Z,16.16
2022-09-18T16:43:58.318Z,16.44
2022-09-18T16:46:27.857Z,16.79
2022-09-18T16:48:55.041Z,17.26
2022-09-18T16:51:22.799Z,17.59
2022-09-18T16:53:50.228Z,17.02
2022-09-18T16:56:17.794Z,17.26
2022-09-18T16:58:44.919Z,17.87
2022-09-18T17:01:12.367Z,17.88
2022-09-18T17:03:39.581Z,18.15
2022-09-18T17:06:06.752Z,18.07
2022-09-18T17:08:34.534Z,18.98
2022-09-18T17:11:02.228Z,18.71
2022-09-18T17:13:29.807Z,19.07
2022-09-18T17:16:01.576Z,19.26
2022-09-18T17:18:32.943Z,19.78
2022-09-18T17:21:01.660Z,19.45
2022-09-18T17:23:31.346Z,19.50
2022-09-18T17:26:09.716Z,19.96
2022-09-18T17:28:37.802Z,19.34
2022-09-18T17:31:10.165Z,18.92
2022-09-18T17:33:38.490Z,19.05
2022-09-18T17:36:06.788Z,19.16
2022-09-18T17:38:35.307Z,19.41
2022-09-18T17:41:03.856Z,19.41
2022-09-18T17:43:32.904Z,19.25
2022-09-18T17:46:01.162Z,18.95
2022-09-18T17:48:29.738Z,19.39
2022-09-18T17:51:00.994Z,17.28
2022-09-18T17:53:31.200Z,18.71
2022-09-18T17:55:59.470Z,18.75
2022-09-18T17:58:27.556Z,18.58
2022-09-18T18:00:55.693Z,18.79
2022-09-18T18:03:24.177Z,18.32
2022-09-18T18:05:51.867Z,18.48
2022-09-18T18:08:19.292Z,17.69
2022-09-18T18:10:47.046Z,18.53
2022-09-18T18:13:17.926Z,17.71
2022-09-18T18:15:45.272Z,18.80
2022-09-18T18:18:14.010Z,18.84
2022-09-18T18:20:49.344Z,18.94
2022-09-18T18:23:17.113Z,18.52
2022-09-18T18:25:44.258Z,18.70
2022-09-18T18:28:12.054Z,18.63
2022-09-18T18:30:40.030Z,18.86
2022-09-18T18:33:07.557Z,18.06
2022-09-18T18:35:35.323Z,18.27
2022-09-18T18:38:05.444Z,18.20
2022-09-18T18:40:33.067Z,18.39
2022-09-18T18:43:00.555Z,17.54
2022-09-18T18:45:28.386Z,18.10
2022-09-18T18:47:56.159Z,17.79
2022-09-18T18:50:23.758Z,16.80
2022-09-18T18:52:52.631Z,17.73
2022-09-18T18:55:20.296Z,17.51
2022-09-18T18:57:47.877Z,17.33
2022-09-18T19:00:15.536Z,17.22
2022-09-18T19:02:44.297Z,17.46
2022-09-18T19:05:13.508Z,17.79
2022-09-18T19:07:41.061Z,17.53
2022-09-18T19:10:08.462Z,17.74
2022-09-18T19:12:36.813Z,17.75
2022-09-18T19:15:04.460Z,17.78
2022-09-18T19:17:31.867Z,17.64
2022-09-18T19:19:59.254Z,18.37
2022-09-18T19:22:27.008Z,17.98
2022-09-18T19:24:54.316Z,17.69
2022-09-18T19:27:21.656Z,17.50
2022-09-18T19:29:49.296Z,17.91
2022-09-18T19:32:19.023Z,18.33
2022-09-18T19:34:46.207Z,18.14
2022-09-18T19:37:16.692Z,17.81
2022-09-18T19:39:49.034Z,17.97
2022-09-18T19:42:17.259Z,17.82
2022-09-18T19:44:48.414Z,17.68
2022-09-18T19:47:24.729Z,18.24
2022-09-18T19:49:52.322Z,17.42
2022-09-18T19:52:20.701Z,17.34
2022-09-18T19:54:48.254Z,15.58
2022-09-18T19:57:16.073Z,16.66
2022-09-18T19:59:43.762Z,15.22
2022-09-18T20:02:12.441Z,16.41
2022-09-18T20:04:41.011Z,16.80
2022-09-18T20:07:08.549Z,17.03
2022-09-18T20:09:35.700Z,16.68
2022-09-18T20:12:03.542Z,16.41
2022-09-18T20:14:30.690Z,16.93
2022-09-18T20:16:58.105Z,17.47
2022-09-18T20:19:26.082Z,16.49
2022-09-18T20:21:53.410Z,15.99
2022-09-18T20:24:20.637Z,17.22
2022-09-18T20:26:48.013Z,17.11
2022-09-18T20:29:16.385Z,17.98
2022-09-18T20:31:45.906Z,17.40
2022-09-18T20:34:13.961Z,17.68
2022-09-18T20:36:41.095Z,17.51
2022-09-18T20:39:08.751Z,17.56
2022-09-18T20:41:36.159Z,17.40
2022-09-18T20:44:05.266Z,17.12
2022-09-18T20:46:36.920Z,18.05
2022-09-18T20:49:05.189Z,17.69
2022-09-18T20:51:34.794Z,18.18
2022-09-18T20:54:02.437Z,18.42
2022-09-18T20:56:30.804Z,18.56
2022-09-18T20:58:58.052Z,17.78
2022-09-18T21:01:26.413Z,17.79
2022-09-18T21:03:57.762Z,18.84
2022-09-18T21:06:25.924Z,18.27
2022-09-18T21:08:54.157Z,17.90
2022-09-18T21:11:23.110Z,18.06
2022-09-18T21:13:57.771Z,17.94
2022-09-18T21:16:26.166Z,17.55
2022-09-18T21:18:55.686Z,17.43
2022-09-18T21:21:22.828Z,17.49
2022-09-18T21:24:02.354Z,16.82
2022-09-18T21:26:33.179Z,17.39
2022-09-18T21:29:01.837Z,17.46
2022-09-18T21:31:29.439Z,17.37
2022-09-18T21:33:59.208Z,18.02
2022-09-18T21:36:27.081Z,17.80
2022-09-18T21:38:55.482Z,18.22
2022-09-18T21:41:23.026Z,16.88
2022-09-18T21:43:51.135Z,17.44
2022-09-18T21:46:19.380Z,17.94
2022-09-18T21:48:47.512Z,17.87
2022-09-18T21:51:15.675Z,18.52
2022-09-18T21:53:43.200Z,17.26
2022-09-18T21:56:17.171Z,16.99
2022-09-18T21:58:45.118Z,17.09
2022-09-18T22:01:15.681Z,17.37
2022-09-18T22:03:50.480Z,16.56
2022-09-18T22:06:18.760Z,16.63
2022-09-18T22:08:50.088Z,18.10
2022-09-18T22:11:18.544Z,17.93
2022-09-18T22:13:46.481Z,17.77
2022-09-18T22:16:14.134Z,17.73
2022-09-18T22:18:41.472Z,18.31
2022-09-18T22:21:20.412Z,17.27
2022-09-18T22:23:48.414Z,17.30
2022-09-18T22:26:15.988Z,17.74
2022-09-18T22:28:46.198Z,17.49
2022-09-18T22:31:13.346Z,17.71
2022-09-18T22:33:40.721Z,17.18
2022-09-18T22:36:08.024Z,17.90
2022-09-18T22:38:35.153Z,17.77
2022-09-18T22:41:03.222Z,18.01
2022-09-18T22:43:30.385Z,17.50
2022-09-18T22:46:01.104Z,18.02
2022-09-18T22:48:28.763Z,17.50
2022-09-18T22:50:55.944Z,17.53
2022-09-18T22:53:23.117Z,18.32
2022-09-18T22:55:50.514Z,17.66
2022-09-18T22:58:17.839Z,16.85
2022-09-18T23:00:44.981Z,16.48
2022-09-18T23:03:12.713Z,17.18
2022-09-18T23:05:40.150Z,17.63
2022-09-18T23:08:08.580Z,17.30
2022-09-18T23:10:36.357Z,17.30
2022-09-18T23:13:03.506Z,17.67
2022-09-18T23:15:30.630Z,17.74
2022-09-18T23:17:58.015Z,17.85
2022-09-18T23:20:25.144Z,15.97
2022-09-18T23:22:52.279Z,17.18
2022-09-18T23:25:19.704Z,17.22
2022-09-18T23:27:46.831Z,16.34
2022-09-18T23:30:13.949Z,15.79
2022-09-18T23:32:42.431Z,17.33
2022-09-18T23:35:09.730Z,17.48
2022-09-18T23:37:36.852Z,17.56
2022-09-18T23:40:04.482Z,16.87
2022-09-18T23:42:31.674Z,17.74
2022-09-18T23:44:58.769Z,17.68
2022-09-18T23:47:26.160Z,18.02
2022-09-18T23:49:53.274Z,18.32
2022-09-18T23:52:20.401Z,18.60
2022-09-18T23:54:47.800Z,17.82
2022-09-18T23:57:14.915Z,18.33
2022-09-18T23:59:42.080Z,17.96
